createdAt,value
2023-05-05T00:01:33.112Z,11.60
2023-05-05T00:04:00.420Z,10.30
2023-05-05T00:06:31.514Z,8.52
2023-05-05T00:08:58.588Z,9.95
2023-05-05T00:11:26.103Z,15.65
2023-05-05T00:13:53.285Z,8.88
2023-05-05T00:16:20.735Z,8.75
2023-05-05T00:18:47.962Z,8.93
2023-05-05T00:21:15.663Z,9.57
2023-05-05T00:23:42.767Z,8.32
2023-05-05T00:26:09.895Z,8.85
2023-05-05T00:28:37.013Z,9.73
2023-05-05T00:31:04.247Z,7.40
2023-05-05T00:33:31.481Z,12.85
2023-05-05T00:35:58.873Z,10.07
2023-05-05T00:38:26.259Z,10.60
2023-05-05T00:40:53.358Z,8.60
2023-05-05T00:43:20.485Z,9.25
2023-05-05T00:45:48.149Z,11.00
2023-05-05T00:48:16.922Z,7.07
2023-05-05T00:50:44.934Z,9.25
2023-05-05T00:53:13.079Z,9.65
2023-05-05T00:55:40.538Z,7.03
2023-05-05T00:58:07.901Z,10.10
2023-05-05T01:00:35.190Z,10.48
2023-05-05T01:03:03.247Z,7.97
2023-05-05T01:05:34.819Z,9.35
2023-05-05T01:08:02.849Z,7.38
2023-05-05T01:10:30.111Z,7.65
2023-05-05T01:13:16.057Z,8.15
2023-05-05T01:15:47.154Z,8.15
2023-05-05T01:18:21.256Z,10.82
2023-05-05T01:20:58.296Z,9.20
2023-05-05T01:23:45.664Z,8.55
2023-05-05T01:26:48.189Z,7.80
2023-05-05T01:29:30.872Z,7.87
2023-05-05T01:32:02.074Z,10.68
2023-05-05T01:34:33.372Z,8.13
2023-05-05T01:37:10.870Z,12.05
2023-05-05T01:39:38.163Z,9.25
2023-05-05T01:42:07.264Z,7.85
2023-05-05T01:44:37.099Z,9.95
2023-05-05T01:47:04.939Z,9.93
2023-05-05T01:49:33.622Z,8.77
2023-05-05T01:52:03.722Z,10.65
2023-05-05T01:54:32.781Z,9.52
2023-05-05T01:57:00.293Z,11.57
2023-05-05T01:59:28.670Z,10.18
2023-05-05T02:01:56.608Z,10.38
2023-05-05T02:04:24.257Z,9.10
2023-05-05T02:06:53.076Z,10.88
2023-05-05T02:09:21.008Z,10.07
2023-05-05T02:11:48.249Z,11.48
2023-05-05T02:14:17.536Z,10.13
2023-05-05T02:20:27.984Z,8.23
2023-05-05T02:22:55.330Z,9.50
2023-05-05T02:25:22.546Z,11.27
2023-05-05T02:27:50.717Z,9.68
2023-05-05T02:30:19.637Z,10.70
2023-05-05T02:32:49.658Z,11.13
2023-05-05T02:35:21.892Z,11.45
2023-05-05T02:37:51.419Z,11.48
2023-05-05T02:40:20.678Z,8.02
2023-05-05T02:42:49.167Z,11.23
2023-05-05T02:45:18.029Z,8.70
2023-05-05T02:47:45.279Z,9.05
2023-05-05T02:50:12.822Z,8.30
2023-05-05T02:52:40.518Z,9.10
2023-05-05T02:55:08.242Z,10.77
2023-05-05T02:57:35.413Z,8.25
2023-05-05T03:00:06.667Z,7.53
2023-05-05T03:02:44.829Z,9.55
2023-05-05T03:05:13.538Z,8.07
2023-05-05T03:07:49.953Z,11.88
2023-05-05T03:10:18.708Z,9.50
2023-05-05T03:12:56.489Z,7.45
2023-05-05T03:15:32.607Z,7.15
2023-05-05T03:18:00.733Z,8.05
2023-05-05T03:20:28.048Z,8.00
2023-05-05T03:22:55.509Z,6.45
2023-05-05T03:25:22.663Z,6.32
2023-05-05T03:27:49.822Z,8.13
2023-05-05T03:30:20.097Z,5.85
2023-05-05T03:32:47.258Z,6.20
2023-05-05T03:35:14.425Z,7.07
2023-05-05T03:37:41.715Z,6.22
2023-05-05T03:40:09.533Z,10.18
2023-05-05T03:42:36.753Z,18.85
2023-05-05T03:45:03.991Z,7.07
2023-05-05T03:47:31.300Z,5.90
2023-05-05T03:49:58.462Z,6.38
2023-05-05T03:52:25.668Z,8.38
2023-05-05T03:54:54.163Z,7.22
2023-05-05T03:57:21.245Z,7.47
2023-05-05T03:59:48.331Z,5.72
2023-05-05T04:02:16.504Z,6.90
2023-05-05T04:04:45.602Z,6.72
2023-05-05T04:07:12.726Z,8.68
2023-05-05T04:09:44.343Z,6.55
2023-05-05T04:12:11.928Z,7.03
2023-05-05T04:14:39.086Z,8.18
2023-05-05T04:17:09.273Z,7.43
2023-05-05T04:19:36.377Z,7.07
2023-05-05T04:22:03.552Z,6.75
2023-05-05T04:24:30.908Z,8.38
2023-05-05T04:26:58.090Z,8.35
2023-05-05T04:29:25.232Z,5.60
2023-05-05T04:31:53.920Z,7.22
2023-05-05T04:34:22.329Z,6.53
2023-05-05T04:36:49.446Z,11.43
2023-05-05T04:39:16.616Z,7.10
2023-05-05T04:41:43.714Z,9.10
2023-05-05T04:44:10.819Z,7.68
2023-05-05T04:46:37.930Z,8.75
2023-05-05T04:49:05.898Z,8.35
2023-05-05T04:51:33.017Z,8.25
2023-05-05T04:54:00.162Z,7.40
2023-05-05T04:56:27.356Z,5.68
2023-05-05T04:58:54.427Z,12.15
2023-05-05T05:01:21.628Z,6.22
2023-05-05T05:03:48.850Z,6.03
2023-05-05T05:06:15.981Z,9.27
2023-05-05T05:08:43.300Z,12.18
2023-05-05T05:11:10.538Z,8.32
2023-05-05T05:13:37.689Z,10.55
2023-05-05T05:16:04.889Z,11.18
2023-05-05T05:18:32.067Z,8.25
2023-05-05T05:20:59.226Z,6.65
2023-05-05T05:23:26.362Z,7.38
2023-05-05T05:25:53.627Z,9.50
2023-05-05T05:28:20.705Z,6.82
2023-05-05T05:30:47.772Z,6.88
2023-05-05T05:33:15.002Z,6.65
2023-05-05T05:35:42.157Z,5.35
2023-05-05T05:38:09.522Z,6.00
2023-05-05T05:40:37.067Z,5.18
2023-05-05T05:43:04.186Z,5.97
2023-05-05T05:45:31.378Z,5.53
2023-05-05T05:47:58.539Z,5.85
2023-05-05T05:50:28.540Z,6.00
2023-05-05T05:52:55.979Z,5.88
2023-05-05T05:55:23.108Z,6.53
2023-05-05T05:57:50.230Z,6.03
2023-05-05T06:00:17.437Z,6.40
2023-05-05T06:02:44.679Z,5.95
2023-05-05T06:05:13.041Z,5.60
2023-05-05T06:07:40.206Z,6.05
2023-05-05T06:10:22.900Z,8.20
2023-05-05T06:12:53.587Z,6.80
2023-05-05T06:15:20.809Z,4.55
2023-05-05T06:17:48.044Z,3.75
2023-05-05T06:20:15.311Z,4.65
2023-05-05T06:22:42.525Z,3.92
2023-05-05T06:25:09.736Z,7.95
2023-05-05T06:27:36.878Z,5.57
2023-05-05T06:30:04.073Z,3.65
2023-05-05T06:32:31.303Z,3.70
2023-05-05T06:34:58.514Z,8.30
2023-05-05T06:37:25.654Z,5.15
2023-05-05T06:39:52.717Z,5.53
2023-05-05T06:42:19.796Z,4.35
2023-05-05T06:44:46.884Z,4.72
2023-05-05T06:47:14.042Z,3.70
2023-05-05T06:49:41.119Z,4.95
2023-05-05T06:52:08.414Z,5.90
2023-05-05T06:54:35.547Z,6.50
2023-05-05T06:57:02.705Z,6.22
2023-05-05T06:59:29.850Z,6.75
2023-05-05T07:01:57.055Z,5.43
2023-05-05T07:04:24.151Z,4.35
2023-05-05T07:06:51.297Z,7.10
2023-05-05T07:09:18.732Z,6.50
2023-05-05T07:11:45.824Z,7.22
2023-05-05T07:14:12.939Z,3.40
2023-05-05T07:16:40.055Z,4.30
2023-05-05T07:19:07.409Z,4.30
2023-05-05T07:21:35.079Z,4.70
2023-05-05T07:24:03.533Z,4.57
2023-05-05T07:26:30.952Z,4.05
2023-05-05T07:28:58.963Z,6.10
2023-05-05T07:31:26.913Z,6.65
2023-05-05T07:33:54.145Z,2.92
2023-05-05T07:36:21.360Z,4.10
2023-05-05T07:38:48.529Z,4.10
2023-05-05T07:41:15.820Z,5.10
2023-05-05T07:43:44.406Z,4.57
2023-05-05T07:46:12.083Z,7.45
2023-05-05T07:48:41.662Z,8.52
2023-05-05T07:51:09.413Z,5.88
2023-05-05T07:53:36.656Z,7.00
2023-05-05T07:56:04.043Z,7.90
2023-05-05T07:58:31.234Z,6.65
2023-05-05T08:00:58.452Z,3.78
2023-05-05T08:03:25.768Z,7.65
2023-05-05T08:05:56.503Z,5.00
2023-05-05T08:08:26.948Z,5.50
2023-05-05T08:10:54.556Z,6.82
2023-05-05T08:13:21.683Z,9.98
2023-05-05T08:15:48.890Z,5.00
2023-05-05T08:18:16.101Z,4.55
2023-05-05T08:20:43.244Z,6.22
2023-05-05T08:23:10.335Z,5.88
2023-05-05T08:25:37.485Z,5.85
2023-05-05T08:28:04.646Z,3.55
2023-05-05T08:30:31.837Z,9.48
2023-05-05T08:32:59.285Z,3.70
2023-05-05T08:35:26.475Z,3.65
2023-05-05T08:37:53.590Z,5.75
2023-05-05T08:40:25.096Z,4.00
2023-05-05T08:42:52.271Z,8.02
2023-05-05T08:45:19.363Z,4.22
2023-05-05T08:47:46.586Z,6.22
2023-05-05T08:50:14.360Z,6.82
2023-05-05T08:52:44.318Z,5.25
2023-05-05T08:55:17.649Z,4.65
2023-05-05T08:57:47.000Z,5.45
2023-05-05T09:00:14.867Z,3.85
2023-05-05T09:02:43.272Z,3.28
2023-05-05T09:05:10.670Z,5.20
2023-05-05T09:07:39.005Z,6.22
2023-05-05T09:10:06.435Z,7.25
2023-05-05T09:12:33.610Z,4.65
2023-05-05T09:15:03.617Z,7.60
2023-05-05T09:17:31.703Z,4.45
2023-05-05T09:20:08.594Z,7.70
2023-05-05T09:22:42.798Z,5.15
2023-05-05T09:25:11.973Z,5.03
2023-05-05T09:27:41.082Z,4.50
2023-05-05T09:30:08.926Z,3.65
2023-05-05T09:32:46.208Z,5.85
2023-05-05T09:35:14.238Z,4.30
2023-05-05T09:37:41.649Z,3.72
2023-05-05T09:40:09.532Z,4.93
2023-05-05T09:42:37.860Z,6.68
2023-05-05T09:45:25.609Z,5.43
2023-05-05T09:47:56.707Z,6.00
2023-05-05T09:50:30.207Z,5.68
2023-05-05T09:52:58.554Z,5.47
2023-05-05T09:55:25.881Z,6.60
2023-05-05T09:57:53.017Z,5.35
2023-05-05T10:00:20.687Z,9.25
2023-05-05T10:02:48.137Z,4.70
2023-05-05T10:05:16.373Z,6.47
2023-05-05T10:07:45.167Z,5.38
2023-05-05T10:10:13.882Z,13.85
2023-05-05T10:12:42.177Z,5.03
2023-05-05T10:15:10.466Z,5.85
2023-05-05T10:17:39.226Z,5.53
2023-05-05T10:20:08.234Z,5.22
2023-05-05T10:22:35.896Z,5.55
2023-05-05T10:25:04.458Z,5.85
2023-05-05T10:27:35.412Z,5.63
2023-05-05T10:30:06.939Z,4.28
2023-05-05T10:35:17.215Z,9.25
2023-05-05T10:37:45.297Z,6.47
2023-05-05T10:40:12.980Z,8.57
2023-05-05T10:42:40.370Z,5.60
2023-05-05T10:45:07.974Z,3.65
2023-05-05T10:47:36.315Z,4.13
2023-05-05T10:50:16.361Z,6.55
2023-05-05T10:52:43.571Z,6.22
2023-05-05T10:55:19.644Z,3.53
2023-05-05T10:57:46.869Z,4.75
2023-05-05T11:00:34.048Z,4.55
2023-05-05T11:03:19.769Z,2.45
2023-05-05T11:06:08.520Z,2.88
2023-05-05T11:08:36.385Z,2.78
2023-05-05T11:11:04.085Z,3.55
2023-05-05T11:13:31.408Z,1.92
2023-05-05T11:15:59.395Z,4.85
2023-05-05T11:18:35.710Z,3.75
2023-05-05T11:21:16.273Z,4.72
2023-05-05T11:23:46.243Z,4.03
2023-05-05T11:26:14.072Z,3.15
2023-05-05T11:28:56.439Z,3.17
2023-05-05T11:31:23.698Z,2.00
2023-05-05T11:33:51.038Z,3.53
2023-05-05T11:36:19.135Z,3.03
2023-05-05T11:38:55.820Z,2.65
2023-05-05T11:41:28.791Z,3.47
2023-05-05T11:44:11.016Z,2.17
2023-05-05T11:46:41.319Z,2.28
2023-05-05T11:49:09.292Z,4.35
2023-05-05T11:51:36.560Z,1.55
2023-05-05T11:54:03.896Z,3.60
2023-05-05T11:56:31.046Z,3.22
2023-05-05T11:59:11.300Z,2.17
2023-05-05T12:01:41.651Z,3.10
2023-05-05T12:04:09.369Z,3.60
2023-05-05T12:06:36.742Z,2.08
2023-05-05T12:09:04.426Z,3.80
2023-05-05T12:11:31.688Z,4.25
2023-05-05T12:14:09.407Z,6.75
2023-05-05T12:16:36.709Z,3.33
2023-05-05T12:19:05.815Z,5.68
2023-05-05T12:21:33.010Z,5.65
2023-05-05T12:24:00.718Z,5.45
2023-05-05T12:26:28.994Z,5.03
2023-05-05T12:28:56.624Z,2.15
2023-05-05T12:31:23.775Z,1.55
2023-05-05T12:33:51.152Z,5.00
2023-05-05T12:36:18.460Z,2.55
2023-05-05T12:38:45.810Z,3.83
2023-05-05T12:41:18.652Z,1.35
2023-05-05T12:43:47.467Z,3.03
2023-05-05T12:46:15.077Z,3.15
2023-05-05T12:48:47.911Z,1.75
2023-05-05T12:51:16.915Z,3.17
2023-05-05T12:53:44.516Z,3.50
2023-05-05T12:56:30.364Z,5.05
2023-05-05T12:58:57.966Z,2.40
2023-05-05T13:01:25.204Z,9.05
2023-05-05T13:04:11.863Z,3.08
2023-05-05T13:06:43.096Z,1.95
2023-05-05T13:09:22.962Z,2.55
2023-05-05T13:11:50.097Z,5.13
2023-05-05T13:14:17.195Z,2.17
2023-05-05T13:16:44.351Z,4.25
2023-05-05T13:19:11.491Z,3.33
2023-05-05T13:21:38.653Z,2.80
2023-05-05T13:24:21.258Z,1.40
2023-05-05T13:26:50.709Z,2.53
2023-05-05T13:29:18.056Z,3.72
2023-05-05T13:31:45.803Z,2.33
2023-05-05T13:34:13.117Z,2.08
2023-05-05T13:36:40.324Z,4.28
2023-05-05T13:39:07.412Z,1.52
2023-05-05T13:41:34.553Z,2.67
2023-05-05T13:44:01.683Z,7.60
2023-05-05T13:46:28.867Z,3.05
2023-05-05T13:48:56.810Z,1.65
2023-05-05T13:51:24.097Z,3.03
2023-05-05T13:53:51.505Z,1.17
2023-05-05T13:56:19.176Z,1.58
2023-05-05T13:58:46.380Z,1.98
2023-05-05T14:01:13.594Z,1.75
2023-05-05T14:03:40.871Z,1.27
2023-05-05T14:06:09.078Z,2.28
2023-05-05T14:08:36.495Z,2.28
2023-05-05T14:11:03.697Z,2.33
2023-05-05T14:13:31.240Z,2.72
2023-05-05T14:15:58.420Z,1.52
2023-05-05T14:18:26.019Z,4.68
2023-05-05T14:20:53.201Z,4.35
2023-05-05T14:23:20.362Z,1.15
2023-05-05T14:25:47.670Z,1.63
2023-05-05T14:28:14.891Z,10.02
2023-05-05T14:30:42.069Z,3.90
2023-05-05T14:33:09.216Z,2.58
2023-05-05T14:35:36.546Z,2.10
2023-05-05T14:38:03.701Z,1.98
2023-05-05T14:40:31.211Z,4.47
2023-05-05T14:42:58.380Z,1.58
2023-05-05T14:45:26.451Z,1.88
2023-05-05T14:47:53.716Z,2.30
2023-05-05T14:50:20.951Z,6.97
2023-05-05T14:52:48.013Z,5.13
2023-05-05T14:55:15.150Z,7.85
2023-05-05T14:57:42.366Z,3.38
2023-05-05T15:00:10.927Z,1.92
2023-05-05T15:02:38.114Z,2.45
2023-05-05T15:05:05.448Z,1.67
2023-05-05T15:07:32.569Z,8.05
2023-05-05T15:09:59.760Z,2.88
2023-05-05T15:12:26.961Z,2.85
2023-05-05T15:14:55.363Z,1.40
2023-05-05T15:17:22.617Z,3.28
2023-05-05T15:19:49.729Z,5.45
2023-05-05T15:22:16.903Z,2.65
2023-05-05T15:24:43.964Z,5.75
2023-05-05T15:27:11.095Z,3.20
2023-05-05T15:29:38.233Z,2.70
2023-05-05T15:32:05.659Z,2.33
2023-05-05T15:34:32.916Z,1.65
2023-05-05T15:37:00.139Z,3.47
2023-05-05T15:39:27.280Z,3.47
2023-05-05T15:41:54.446Z,2.47
2023-05-05T15:44:21.528Z,1.65
2023-05-05T15:46:50.473Z,1.88
2023-05-05T15:49:17.883Z,7.38
2023-05-05T15:51:45.043Z,2.45
2023-05-05T15:54:12.127Z,4.38
2023-05-05T15:56:39.313Z,3.88
2023-05-05T15:59:06.457Z,2.10
2023-05-05T16:01:33.655Z,2.00
2023-05-05T16:04:01.284Z,2.88
2023-05-05T16:06:28.875Z,4.72
2023-05-05T16:08:58.400Z,2.80
2023-05-05T16:11:26.163Z,3.58
2023-05-05T16:13:53.626Z,2.75
2023-05-05T16:16:20.848Z,2.95
2023-05-05T16:18:48.129Z,6.47
2023-05-05T16:21:15.344Z,6.15
2023-05-05T16:23:42.518Z,6.93
2023-05-05T16:26:09.696Z,6.85
2023-05-05T16:28:37.569Z,4.15
2023-05-05T16:31:04.930Z,2.50
2023-05-05T16:33:32.168Z,4.70
2023-05-05T16:35:59.313Z,2.45
2023-05-05T16:38:26.460Z,3.67
2023-05-05T16:40:53.624Z,3.60
2023-05-05T16:43:20.748Z,9.77
2023-05-05T16:45:48.059Z,11.90
2023-05-05T16:48:17.512Z,12.95
2023-05-05T16:51:05.541Z,7.78
2023-05-05T16:53:33.678Z,7.32
2023-05-05T16:56:00.779Z,3.67
2023-05-05T16:58:28.207Z,6.95
2023-05-05T17:00:55.376Z,8.45
2023-05-05T17:03:22.735Z,5.13
2023-05-05T17:05:50.452Z,4.57
2023-05-05T17:08:17.843Z,5.70
2023-05-05T17:10:45.692Z,9.55
2023-05-05T17:13:13.412Z,5.43
2023-05-05T17:15:40.972Z,7.13
2023-05-05T17:18:08.902Z,8.75
2023-05-05T17:20:36.362Z,13.27
2023-05-05T17:23:03.731Z,7.78
2023-05-05T17:25:30.985Z,9.98
2023-05-05T17:27:58.195Z,5.65
2023-05-05T17:30:25.586Z,6.72
2023-05-05T17:32:52.828Z,6.85
2023-05-05T17:35:20.193Z,7.28
2023-05-05T17:37:47.428Z,4.50
2023-05-05T17:40:14.571Z,7.95
2023-05-05T17:42:41.756Z,7.07
2023-05-05T17:45:09.320Z,7.35
2023-05-05T17:47:36.703Z,6.57
2023-05-05T17:50:04.040Z,7.80
2023-05-05T17:52:31.256Z,4.93
2023-05-05T17:54:58.537Z,4.63
2023-05-05T17:57:25.711Z,3.30
2023-05-05T17:59:53.764Z,5.30
2023-05-05T18:02:21.172Z,3.55
2023-05-05T18:04:50.127Z,3.70
2023-05-05T18:07:17.222Z,6.22
2023-05-05T18:09:44.320Z,3.80
2023-05-05T18:12:11.872Z,2.83
2023-05-05T18:14:39.032Z,3.40
2023-05-05T18:17:06.135Z,3.33
2023-05-05T18:19:33.287Z,3.47
2023-05-05T18:22:00.471Z,3.03
2023-05-05T18:24:28.156Z,5.55
2023-05-05T18:26:55.453Z,3.97
2023-05-05T18:29:22.965Z,5.07
2023-05-05T18:31:52.922Z,4.05
2023-05-05T18:34:20.695Z,6.40
2023-05-05T18:36:48.193Z,4.38
2023-05-05T18:39:15.481Z,4.90
2023-05-05T18:41:42.656Z,4.32
2023-05-05T18:44:10.865Z,4.43
2023-05-05T18:46:38.120Z,4.97
2023-05-05T18:49:05.299Z,6.88
2023-05-05T18:51:32.633Z,5.95
2023-05-05T18:54:00.850Z,5.50
2023-05-05T18:56:28.066Z,5.25
2023-05-05T18:58:55.576Z,4.50
2023-05-05T19:01:23.370Z,4.35
2023-05-05T19:03:50.599Z,4.78
2023-05-05T19:06:18.034Z,9.70
2023-05-05T19:08:45.525Z,5.25
2023-05-05T19:11:14.755Z,4.78
2023-05-05T19:13:41.972Z,4.60
2023-05-05T19:16:10.350Z,3.40
2023-05-05T19:18:37.579Z,2.88
2023-05-05T19:21:04.852Z,6.13
2023-05-05T19:23:32.235Z,4.20
2023-05-05T19:25:59.412Z,5.07
2023-05-05T19:28:26.549Z,8.55
2023-05-05T19:30:53.741Z,6.07
2023-05-05T19:33:20.910Z,3.33
2023-05-05T19:35:47.979Z,7.00
2023-05-05T19:38:15.704Z,2.67
2023-05-05T19:40:43.771Z,2.92
2023-05-05T19:43:11.022Z,3.03
2023-05-05T19:45:38.225Z,3.35
2023-05-05T19:48:05.529Z,4.07
2023-05-05T19:50:32.701Z,4.95
2023-05-05T19:52:59.845Z,2.30
2023-05-05T19:55:30.655Z,7.07
2023-05-05T19:57:57.891Z,2.95
2023-05-05T20:00:25.196Z,4.40
2023-05-05T20:02:52.520Z,6.22
2023-05-05T20:05:19.823Z,5.45
2023-05-05T20:07:47.010Z,6.75
2023-05-05T20:10:14.615Z,7.45
2023-05-05T20:12:47.727Z,6.72
2023-05-05T20:15:18.495Z,6.45
2023-05-05T20:17:46.850Z,5.72
2023-05-05T20:20:17.006Z,5.70
2023-05-05T20:22:44.686Z,7.65
2023-05-05T20:25:12.257Z,5.80
2023-05-05T20:27:39.864Z,8.20
2023-05-05T20:30:08.363Z,5.40
2023-05-05T20:32:35.835Z,4.22
2023-05-05T20:35:04.626Z,4.60
2023-05-05T20:37:31.850Z,5.82
2023-05-05T20:39:59.117Z,18.60
2023-05-05T20:42:27.554Z,41.95
2023-05-05T20:44:54.724Z,10.43
2023-05-05T20:47:21.889Z,8.20
2023-05-05T20:49:49.050Z,9.15
2023-05-05T20:52:16.456Z,8.40
2023-05-05T20:54:43.624Z,6.07
2023-05-05T20:57:10.795Z,7.85
2023-05-05T20:59:38.327Z,6.85
2023-05-05T21:02:05.770Z,8.73
2023-05-05T21:04:33.093Z,9.98
2023-05-05T21:07:00.260Z,10.52
2023-05-05T21:09:27.479Z,11.50
2023-05-05T21:11:54.637Z,14.35
2023-05-05T21:14:22.004Z,13.07
2023-05-05T21:16:49.186Z,17.48
2023-05-05T21:19:16.536Z,19.92
2023-05-05T21:21:44.322Z,15.57
2023-05-05T21:24:12.968Z,12.52
2023-05-05T21:26:44.101Z,13.15
2023-05-05T21:29:11.429Z,13.80
2023-05-05T21:31:38.822Z,12.93
2023-05-05T21:34:06.034Z,15.50
2023-05-05T21:36:33.993Z,12.90
2023-05-05T21:39:01.695Z,14.23
2023-05-05T21:41:28.945Z,13.52
2023-05-05T21:43:56.157Z,16.10
2023-05-05T21:46:23.388Z,20.10
2023-05-05T21:48:50.598Z,19.70
2023-05-05T21:51:17.769Z,24.05
2023-05-05T21:53:44.891Z,21.75
2023-05-05T21:56:12.010Z,21.08
2023-05-05T21:58:41.005Z,23.15
2023-05-05T22:01:08.194Z,22.25
2023-05-05T22:03:35.554Z,18.92
2023-05-05T22:06:02.811Z,19.95
2023-05-05T22:08:29.907Z,18.90
2023-05-05T22:10:56.970Z,19.42
2023-05-05T22:13:24.134Z,18.67
2023-05-05T22:15:51.370Z,18.50
2023-05-05T22:18:18.526Z,16.55
2023-05-05T22:20:46.852Z,20.35
2023-05-05T22:23:14.184Z,20.98
2023-05-05T22:25:41.438Z,18.60
2023-05-05T22:28:08.861Z,20.27
2023-05-05T22:30:36.044Z,19.33
2023-05-05T22:33:03.324Z,19.42
2023-05-05T22:35:30.403Z,19.10
2023-05-05T22:37:57.953Z,22.23
2023-05-05T22:40:25.108Z,16.60
2023-05-05T22:42:52.875Z,16.25
2023-05-05T22:45:20.064Z,17.65
2023-05-05T22:47:47.252Z,16.98
2023-05-05T22:50:14.352Z,15.77
2023-05-05T22:52:41.497Z,19.63
2023-05-05T22:55:09.168Z,21.45
2023-05-05T22:57:36.547Z,21.40
2023-05-05T23:00:05.282Z,20.50
2023-05-05T23:02:32.454Z,19.75
2023-05-05T23:04:59.551Z,19.25
2023-05-05T23:07:26.706Z,19.33
2023-05-05T23:09:54.190Z,17.58
2023-05-05T23:12:21.480Z,20.40
2023-05-05T23:14:49.928Z,18.20
2023-05-05T23:17:17.115Z,18.40
2023-05-05T23:19:47.460Z,16.83
2023-05-05T23:22:14.601Z,17.15
2023-05-05T23:24:41.734Z,14.48
2023-05-05T23:27:08.837Z,18.38
2023-05-05T23:29:35.999Z,17.50
2023-05-05T23:32:03.061Z,16.10
2023-05-05T23:34:30.289Z,16.70
2023-05-05T23:36:57.362Z,20.83
2023-05-05T23:39:24.497Z,24.52
2023-05-05T23:41:51.568Z,19.58
2023-05-05T23:44:18.707Z,22.23
2023-05-05T23:46:45.800Z,18.63
2023-05-05T23:49:12.910Z,24.73
2023-05-05T23:51:39.999Z,28.50
2023-05-05T23:54:07.452Z,27.05
2023-05-05T23:56:34.611Z,30.58
2023-05-05T23:59:01.751Z,33.58
